Time;durP1;ratioP1;P1;durP2;ratioP2;P2;SDS_P1;SDS_P2;PMS_P1;PMS_P2;Temp;Humidity;BMP_temperature;BMP_pressure;BME280_temperature;BME280_humidity;BME280_pressure;Samples;Min_cycle;Max_cycle;Signal;HPM_P1;HPM_P2
2022/08/04 00:02:18;;;;;;;3.10;2.08;;;;;;;;;;10197661;28;20423;-60
2022/08/04 00:07:19;;;;;;;5.28;2.65;;;;;;;;;;10198629;28;20567;-61
2022/08/04 00:12:42;;;;;;;5.05;2.20;;;;;;;;;;10198779;28;20092;-60
2022/08/04 00:17:44;;;;;;;4.18;2.15;;;;;;;;;;10198475;28;20057;-60
2022/08/04 00:22:46;;;;;;;5.45;2.15;;;;;;;;;;10198671;28;20042;-60
2022/08/04 00:27:45;;;;;;;3.88;2.45;;;;;;;;;;10198596;28;20053;-60
2022/08/04 00:32:44;;;;;;;4.90;2.35;;;;;;;;;;10161423;28;20515;-60
2022/08/04 00:37:44;;;;;;;3.60;2.90;;;;;;;;;;10158510;28;20081;-60
2022/08/04 00:42:44;;;;;;;3.70;2.20;;;;;;;;;;10158159;28;20076;-60
2022/08/04 00:48:00;;;;;;;4.43;2.33;;;;;;;;;;10157762;28;20061;-60
2022/08/04 00:53:08;;;;;;;4.03;2.13;;;;;;;;;;10156862;28;20074;-60
2022/08/04 00:58:17;;;;;;;2.10;1.90;;;;;;;;;;10157391;28;20081;-61
2022/08/04 01:03:21;;;;;;;2.25;2.05;;;;;;;;;;10157313;28;20069;-60
2022/08/04 01:08:33;;;;;;;2.53;2.10;;;;;;;;;;10155686;28;20042;-60
2022/08/04 01:13:50;;;;;;;3.70;1.95;;;;;;;;;;10157201;28;20093;-60
2022/08/04 01:18:53;;;;;;;5.07;2.33;;;;;;;;;;10154765;28;20058;-60
2022/08/04 01:24:02;;;;;;;3.67;1.98;;;;;;;;;;10156060;28;20053;-60
2022/08/04 01:29:05;;;;;;;3.95;2.40;;;;;;;;;;10155941;28;20492;-60
2022/08/04 01:34:06;;;;;;;3.00;2.53;;;;;;;;;;10156116;28;20086;-60
2022/08/04 01:39:39;;;;;;;3.80;2.50;;;;;;;;;;10155686;28;20047;-60
2022/08/04 01:44:27;;;;;;;5.10;2.35;;;;;;;;;;10155852;28;20416;-59
2022/08/04 01:49:28;;;;;;;8.52;2.75;;;;;;;;;;10155765;28;20061;-61
2022/08/04 01:54:38;;;;;;;3.92;2.17;;;;;;;;;;10154718;28;20472;-60
2022/08/04 01:59:38;;;;;;;7.20;2.53;;;;;;;;;;10153838;28;20066;-60
2022/08/04 02:04:36;;;;;;;4.25;2.25;;;;;;;;;;10154526;28;20046;-61
2022/08/04 02:09:38;;;;;;;3.63;2.63;;;;;;;;;;10154321;28;20522;-60
2022/08/04 02:14:59;;;;;;;3.88;2.70;;;;;;;;;;10153736;28;20070;-60
2022/08/04 02:20:06;;;;;;;5.32;2.10;;;;;;;;;;10153902;28;20072;-60
2022/08/04 02:25:05;;;;;;;7.88;2.83;;;;;;;;;;10153396;28;20081;-59
2022/08/04 02:30:05;;;;;;;2.47;2.28;;;;;;;;;;10153101;28;20527;-60
2022/08/04 02:35:06;;;;;;;8.52;2.83;;;;;;;;;;10153383;28;20535;-60
2022/08/04 02:40:06;;;;;;;5.43;2.10;;;;;;;;;;10153406;28;20089;-60
2022/08/04 02:45:07;;;;;;;5.38;2.33;;;;;;;;;;10153731;28;20070;-60
2022/08/04 02:50:08;;;;;;;2.85;1.95;;;;;;;;;;10153323;28;20534;-59
2022/08/04 02:55:11;;;;;;;4.68;2.08;;;;;;;;;;10153102;28;20463;-59
2022/08/04 03:00:13;;;;;;;6.65;2.28;;;;;;;;;;10153071;28;20042;-60
2022/08/04 03:05:16;;;;;;;3.58;2.33;;;;;;;;;;10152960;28;20097;-60
2022/08/04 03:10:33;;;;;;;5.57;2.45;;;;;;;;;;10153037;28;20082;-60
2022/08/04 03:15:55;;;;;;;4.13;1.83;;;;;;;;;;10152897;28;20496;-60
2022/08/04 03:21:12;;;;;;;4.45;2.90;;;;;;;;;;10133632;28;20089;-60
2022/08/04 03:26:37;;;;;;;2.42;2.00;;;;;;;;;;10160113;28;20054;-59
2022/08/04 03:31:56;;;;;;;2.97;2.25;;;;;;;;;;10160377;28;20050;-61
2022/08/04 03:37:08;;;;;;;2.50;2.30;;;;;;;;;;10159757;28;20077;-60
2022/08/04 03:42:12;;;;;;;3.10;2.30;;;;;;;;;;10160091;28;20069;-60
2022/08/04 03:47:35;;;;;;;4.45;2.53;;;;;;;;;;10159601;28;20093;-60
2022/08/04 03:58:31;;;;;;;4.40;2.65;;;;;;;;;;10160334;28;20081;-60
2022/08/04 04:03:40;;;;;;;8.15;3.35;;;;;;;;;;10125285;28;20042;-60
2022/08/04 04:08:58;;;;;;;5.22;2.63;;;;;;;;;;10159744;28;20217;-59
2022/08/04 04:14:09;;;;;;;8.10;2.53;;;;;;;;;;10182185;28;20093;-60
2022/08/04 04:19:23;;;;;;;6.78;3.00;;;;;;;;;;10181999;28;20115;-61
2022/08/04 04:24:43;;;;;;;9.18;3.03;;;;;;;;;;10176600;28;20096;-60
2022/08/04 04:29:56;;;;;;;3.50;2.63;;;;;;;;;;10165192;28;20079;-60
2022/08/04 04:35:05;;;;;;;9.60;3.92;;;;;;;;;;10164748;28;20099;-59
2022/08/04 04:40:14;;;;;;;12.27;4.65;;;;;;;;;;10153791;28;20076;-60
2022/08/04 04:45:22;;;;;;;11.10;3.85;;;;;;;;;;10173002;28;20072;-60
2022/08/04 04:50:25;;;;;;;14.55;3.80;;;;;;;;;;10138356;28;20051;-61
2022/08/04 04:55:35;;;;;;;7.13;3.30;;;;;;;;;;10165738;28;20073;-61
2022/08/04 05:00:40;;;;;;;11.30;3.13;;;;;;;;;;10168901;28;20057;-59
2022/08/04 05:05:57;;;;;;;11.52;3.97;;;;;;;;;;10176082;28;20489;-60
2022/08/04 05:11:03;;;;;;;4.00;2.55;;;;;;;;;;10169588;28;20101;-62
2022/08/04 05:16:05;;;;;;;4.85;3.25;;;;;;;;;;10174917;28;20104;-61
2022/08/04 05:21:09;;;;;;;3.30;2.63;;;;;;;;;;10167855;28;20093;-59
2022/08/04 05:26:11;;;;;;;8.45;3.97;;;;;;;;;;10161967;28;20149;-60
2022/08/04 05:31:11;;;;;;;2.72;2.47;;;;;;;;;;10163106;28;20062;-60
2022/08/04 05:36:15;;;;;;;3.83;2.53;;;;;;;;;;10150977;28;20089;-60
2022/08/04 05:41:24;;;;;;;4.20;2.53;;;;;;;;;;10170743;28;20072;-60
2022/08/04 05:46:45;;;;;;;4.15;2.63;;;;;;;;;;10168256;28;20703;-61
2022/08/04 05:51:53;;;;;;;5.07;3.22;;;;;;;;;;10165672;28;20070;-61
2022/08/04 05:56:53;;;;;;;5.10;2.30;;;;;;;;;;10168267;28;20444;-60
2022/08/04 06:01:53;;;;;;;5.13;2.60;;;;;;;;;;10161461;28;20072;-59
2022/08/04 06:06:55;;;;;;;5.22;2.80;;;;;;;;;;10157234;28;20053;-60
2022/08/04 06:11:53;;;;;;;4.72;2.42;;;;;;;;;;10157752;28;20065;-60
2022/08/04 06:17:02;;;;;;;2.20;2.00;;;;;;;;;;10159205;28;20108;-60
2022/08/04 06:22:03;;;;;;;4.10;2.00;;;;;;;;;;10154425;28;20642;-61
2022/08/04 06:27:03;;;;;;;4.38;2.63;;;;;;;;;;10141565;28;20473;-61
2022/08/04 06:32:12;;;;;;;3.95;2.58;;;;;;;;;;10168499;28;20073;-61
2022/08/04 06:37:32;;;;;;;4.38;3.03;;;;;;;;;;10151727;28;20086;-61
2022/08/04 06:42:41;;;;;;;2.92;2.30;;;;;;;;;;10150555;28;20066;-61
2022/08/04 06:47:40;;;;;;;2.30;2.05;;;;;;;;;;10160443;28;20495;-61
2022/08/04 06:52:40;;;;;;;8.38;2.50;;;;;;;;;;10171346;28;20082;-62
2022/08/04 06:57:40;;;;;;;4.07;2.30;;;;;;;;;;10177508;28;20078;-61
2022/08/04 07:02:39;;;;;;;5.15;2.58;;;;;;;;;;10190375;28;20080;-61
2022/08/04 07:07:40;;;;;;;3.85;2.58;;;;;;;;;;10184226;28;20074;-60
2022/08/04 07:12:56;;;;;;;6.57;2.75;;;;;;;;;;10178756;28;20066;-60
2022/08/04 07:17:55;;;;;;;6.30;3.08;;;;;;;;;;10177720;28;20070;-61
2022/08/04 07:22:55;;;;;;;5.00;2.97;;;;;;;;;;10175886;28;20081;-60
2022/08/04 07:27:54;;;;;;;5.28;2.92;;;;;;;;;;10177602;28;20073;-60
2022/08/04 07:32:52;;;;;;;7.30;3.00;;;;;;;;;;10183468;28;20334;-60
2022/08/04 07:37:51;;;;;;;9.70;3.20;;;;;;;;;;10198563;28;20080;-60
2022/08/04 07:42:50;;;;;;;6.80;2.85;;;;;;;;;;10198879;28;20069;-60
2022/08/04 07:47:49;;;;;;;3.38;3.03;;;;;;;;;;10196400;28;20065;-60
2022/08/04 07:53:02;;;;;;;3.17;2.88;;;;;;;;;;10196337;28;20085;-61
2022/08/04 07:58:22;;;;;;;3.88;2.58;;;;;;;;;;10196443;28;20228;-61
2022/08/04 08:03:26;;;;;;;3.83;2.20;;;;;;;;;;10200121;28;20480;-61
2022/08/04 08:08:25;;;;;;;3.03;2.70;;;;;;;;;;10198882;28;20057;-61
2022/08/04 08:13:25;;;;;;;3.63;2.45;;;;;;;;;;10197726;28;20042;-61
2022/08/04 08:18:30;;;;;;;3.65;3.05;;;;;;;;;;10199282;28;20492;-61
2022/08/04 08:23:30;;;;;;;3.83;2.50;;;;;;;;;;10199002;28;20080;-61
2022/08/04 08:28:30;;;;;;;3.13;2.33;;;;;;;;;;10197888;28;20060;-62
2022/08/04 08:33:28;;;;;;;4.25;2.45;;;;;;;;;;10196529;28;20084;-61
2022/08/04 08:38:37;;;;;;;9.88;3.22;;;;;;;;;;10181305;28;20073;-61
2022/08/04 08:43:40;;;;;;;4.85;2.70;;;;;;;;;;10181129;28;20507;-61
2022/08/04 08:49:05;;;;;;;5.78;2.80;;;;;;;;;;10174742;28;20073;-61
2022/08/04 08:54:21;;;;;;;4.20;2.97;;;;;;;;;;10175211;28;20082;-61
2022/08/04 08:59:30;;;;;;;3.75;2.30;;;;;;;;;;10167114;28;20084;-61
2022/08/04 09:04:46;;;;;;;6.35;3.10;;;;;;;;;;10156557;28;20066;-61
2022/08/04 09:10:02;;;;;;;11.48;4.00;;;;;;;;;;10164233;28;20039;-61
2022/08/04 09:15:04;;;;;;;5.63;2.58;;;;;;;;;;10179960;28;20084;-60
2022/08/04 09:20:03;;;;;;;9.02;3.33;;;;;;;;;;10181822;28;20086;-61
2022/08/04 09:25:07;;;;;;;6.43;2.45;;;;;;;;;;10162237;28;20046;-61
2022/08/04 09:30:08;;;;;;;8.05;2.70;;;;;;;;;;10189026;28;20503;-61
2022/08/04 09:35:12;;;;;;;5.43;3.10;;;;;;;;;;10194245;28;20074;-61
2022/08/04 09:40:20;;;;;;;4.07;2.60;;;;;;;;;;10192937;28;20404;-61
2022/08/04 09:45:43;;;;;;;5.88;2.60;;;;;;;;;;10192187;28;20077;-62
2022/08/04 09:50:44;;;;;;;5.57;2.50;;;;;;;;;;10192273;28;20486;-62
2022/08/04 09:55:50;;;;;;;1.95;1.73;;;;;;;;;;10190482;28;20097;-60
2022/08/04 10:01:00;;;;;;;2.75;2.20;;;;;;;;;;10194621;28;20046;-61
2022/08/04 10:06:05;;;;;;;3.33;2.00;;;;;;;;;;10195151;28;20081;-61
2022/08/04 10:11:06;;;;;;;2.72;2.30;;;;;;;;;;10194417;28;20042;-62
2022/08/04 10:16:19;;;;;;;7.15;3.55;;;;;;;;;;10194999;28;20088;-61
2022/08/04 10:21:25;;;;;;;4.50;2.35;;;;;;;;;;10194055;28;20050;-61
2022/08/04 10:26:33;;;;;;;3.85;2.28;;;;;;;;;;10194674;28;20522;-60
2022/08/04 10:31:35;;;;;;;5.85;2.75;;;;;;;;;;10193512;28;20209;-61
2022/08/04 10:36:40;;;;;;;4.90;2.17;;;;;;;;;;10194005;28;20077;-62
2022/08/04 10:41:42;;;;;;;5.53;2.28;;;;;;;;;;10193324;28;20320;-61
2022/08/04 10:46:45;;;;;;;3.57;2.30;;;;;;;;;;10194394;28;20518;-62
2022/08/04 10:51:43;;;;;;;;;;;;;;;;;;10194088;28;20057;-61
2022/08/04 10:56:59;;;;;;;12.20;3.08;;;;;;;;;;10193657;28;19972;-60
2022/08/04 11:02:03;;;;;;;6.32;3.17;;;;;;;;;;10193678;28;20074;-61
2022/08/04 11:07:01;;;;;;;4.93;3.08;;;;;;;;;;10194045;28;20317;-62
2022/08/04 11:12:03;;;;;;;4.55;2.20;;;;;;;;;;10193599;28;20069;-61
2022/08/04 11:17:05;;;;;;;7.85;2.53;;;;;;;;;;10194247;28;20086;-61
2022/08/04 11:22:06;;;;;;;4.97;2.97;;;;;;;;;;10194268;28;20089;-61
2022/08/04 11:27:09;;;;;;;3.90;2.13;;;;;;;;;;10193619;28;20061;-61
2022/08/04 11:32:12;;;;;;;3.83;2.80;;;;;;;;;;10193424;28;20042;-61
2022/08/04 11:37:13;;;;;;;3.53;2.05;;;;;;;;;;10193381;28;20085;-60
2022/08/04 11:42:18;;;;;;;6.03;2.28;;;;;;;;;;10193606;28;20054;-61
2022/08/04 11:47:29;;;;;;;7.15;2.53;;;;;;;;;;10200704;28;20046;-62
2022/08/04 11:52:28;;;;;;;3.45;2.38;;;;;;;;;;10200043;28;20050;-61
2022/08/04 11:57:26;;;;;;;5.53;1.85;;;;;;;;;;10200219;28;20136;-61
2022/08/04 12:02:41;;;;;;;6.10;2.35;;;;;;;;;;10199851;28;20045;-62
2022/08/04 12:07:49;;;;;;;4.80;2.13;;;;;;;;;;10199977;28;20042;-61
2022/08/04 12:12:54;;;;;;;4.72;2.53;;;;;;;;;;10199961;28;20089;-61
2022/08/04 12:17:57;;;;;;;2.13;1.95;;;;;;;;;;10199164;28;20074;-62
2022/08/04 12:23:01;;;;;;;3.38;2.05;;;;;;;;;;10199901;28;20428;-61
2022/08/04 12:28:05;;;;;;;7.55;2.53;;;;;;;;;;10198263;28;20343;-62
2022/08/04 12:33:06;;;;;;;7.13;2.88;;;;;;;;;;10198372;28;20050;-60
2022/08/04 12:38:06;;;;;;;3.20;2.45;;;;;;;;;;10198396;28;20077;-62
2022/08/04 12:43:08;;;;;;;3.45;2.45;;;;;;;;;;10197962;28;20053;-61
2022/08/04 12:48:09;;;;;;;4.40;2.15;;;;;;;;;;10198074;28;20054;-60
2022/08/04 12:53:12;;;;;;;5.97;2.47;;;;;;;;;;10197525;28;20050;-61
2022/08/04 12:58:18;;;;;;;5.07;2.30;;;;;;;;;;10197154;28;20466;-61
2022/08/04 13:03:39;;;;;;;2.97;2.30;;;;;;;;;;10195343;28;20053;-61
2022/08/04 13:08:38;;;;;;;10.20;2.78;;;;;;;;;;10196994;28;20127;-62
2022/08/04 13:13:38;;;;;;;4.28;2.15;;;;;;;;;;10196732;28;20041;-61
2022/08/04 13:18:39;;;;;;;7.13;2.42;;;;;;;;;;10196772;28;20443;-62
2022/08/04 13:23:37;;;;;;;3.75;2.72;;;;;;;;;;10195974;28;20046;-62
2022/08/04 13:28:59;;;;;;;8.93;2.72;;;;;;;;;;10196535;28;20092;-62
2022/08/04 13:34:15;;;;;;;5.65;2.90;;;;;;;;;;10195061;28;20050;-62
2022/08/04 13:39:18;;;;;;;7.28;3.00;;;;;;;;;;10195195;28;20069;-60
2022/08/04 13:44:18;;;;;;;3.80;2.40;;;;;;;;;;10196074;28;20088;-60
2022/08/04 13:49:19;;;;;;;3.72;2.75;;;;;;;;;;10194938;28;20511;-62
2022/08/04 13:54:39;;;;;;;10.75;4.20;;;;;;;;;;10194881;28;20114;-62
2022/08/04 13:59:40;;;;;;;4.73;2.50;;;;;;;;;;10193789;28;20073;-62
2022/08/04 14:04:41;;;;;;;3.50;2.65;;;;;;;;;;10193615;28;20061;-62
2022/08/04 14:09:39;;;;;;;6.18;3.60;;;;;;;;;;10193320;28;20057;-61
2022/08/04 14:14:58;;;;;;;6.82;2.95;;;;;;;;;;10193783;28;20050;-61
2022/08/04 14:19:58;;;;;;;8.27;3.63;;;;;;;;;;10193177;28;20096;-61
2022/08/04 14:24:57;;;;;;;7.80;4.22;;;;;;;;;;10193207;28;20061;-61
2022/08/04 14:29:56;;;;;;;5.20;3.95;;;;;;;;;;10192977;28;20084;-62
2022/08/04 14:34:54;;;;;;;5.43;3.08;;;;;;;;;;10192675;28;20368;-61
2022/08/04 14:39:54;;;;;;;4.65;3.65;;;;;;;;;;10192942;28;20078;-62
2022/08/04 14:45:12;;;;;;;6.20;3.33;;;;;;;;;;10192265;28;20490;-61
2022/08/04 14:50:14;;;;;;;5.00;2.95;;;;;;;;;;10184842;28;20434;-61
2022/08/04 14:55:18;;;;;;;4.20;1.90;;;;;;;;;;10170443;28;20499;-61
2022/08/04 15:00:24;;;;;;;3.80;2.35;;;;;;;;;;10185947;28;20077;-61
2022/08/04 15:05:23;;;;;;;5.75;3.83;;;;;;;;;;10176346;28;20118;-61
2022/08/04 15:10:43;;;;;;;3.97;3.42;;;;;;;;;;10178571;28;20069;-61
2022/08/04 15:15:42;;;;;;;6.22;3.17;;;;;;;;;;10171407;28;20535;-61
2022/08/04 15:21:01;;;;;;;152.40;19.92;;;;;;;;;;10175934;28;20092;-61
2022/08/04 15:26:04;;;;;;;4.75;3.40;;;;;;;;;;10179444;28;20077;-62
2022/08/04 15:31:03;;;;;;;5.65;4.70;;;;;;;;;;10178001;28;20077;-62
2022/08/04 15:36:27;;;;;;;11.43;4.13;;;;;;;;;;10179006;28;20089;-61
2022/08/04 15:41:31;;;;;;;17.52;4.10;;;;;;;;;;10163563;28;20066;-62
2022/08/04 15:46:52;;;;;;;7.82;3.95;;;;;;;;;;10174178;28;20062;-61
2022/08/04 15:51:58;;;;;;;3.42;2.92;;;;;;;;;;10177507;28;20097;-61
2022/08/04 15:56:59;;;;;;;7.60;3.55;;;;;;;;;;10168513;28;20086;-60
2022/08/04 16:02:15;;;;;;;2.40;2.20;;;;;;;;;;10163995;28;20081;-60
2022/08/04 16:07:13;;;;;;;4.18;2.45;;;;;;;;;;10193143;28;20046;-60
2022/08/04 16:12:33;;;;;;;8.10;2.80;;;;;;;;;;10194697;28;20037;-59
2022/08/04 16:17:52;;;;;;;7.72;2.20;;;;;;;;;;10197691;28;20511;-59
2022/08/04 16:22:51;;;;;;;8.30;3.17;;;;;;;;;;10172606;28;20066;-60
2022/08/04 16:27:51;;;;;;;6.28;2.90;;;;;;;;;;10156401;28;20451;-60
2022/08/04 16:32:53;;;;;;;3.63;2.83;;;;;;;;;;10178872;28;20411;-61
2022/08/04 16:37:53;;;;;;;2.40;2.20;;;;;;;;;;10177759;28;20062;-61
2022/08/04 16:42:53;;;;;;;11.65;3.13;;;;;;;;;;10175219;28;20304;-61
2022/08/04 16:48:01;;;;;;;3.80;2.92;;;;;;;;;;10182726;28;20038;-61
2022/08/04 16:52:59;;;;;;;5.85;2.83;;;;;;;;;;10160540;28;20066;-60
2022/08/04 16:57:59;;;;;;;10.98;4.47;;;;;;;;;;10171719;28;20099;-61
2022/08/04 17:02:57;;;;;;;4.97;3.55;;;;;;;;;;10157522;28;20057;-61
2022/08/04 17:07:56;;;;;;;6.63;2.67;;;;;;;;;;10155199;28;20074;-60
2022/08/04 17:13:23;;;;;;;3.45;2.40;;;;;;;;;;10139994;28;20093;-60
2022/08/04 17:18:42;;;;;;;4.88;2.85;;;;;;;;;;10166697;28;20089;-61
2022/08/04 17:23:42;;;;;;;6.47;3.28;;;;;;;;;;10173223;28;20062;-60
2022/08/04 17:29:03;;;;;;;3.55;3.00;;;;;;;;;;10162662;28;20092;-60
2022/08/04 17:34:09;;;;;;;4.47;2.40;;;;;;;;;;10168869;28;20445;-61
2022/08/04 17:39:16;;;;;;;5.78;2.75;;;;;;;;;;10121555;28;20085;-60
2022/08/04 17:44:16;;;;;;;3.58;2.72;;;;;;;;;;10161006;28;20070;-60
2022/08/04 17:49:23;;;;;;;5.45;2.40;;;;;;;;;;10196273;28;20089;-60
2022/08/04 17:54:29;;;;;;;4.70;3.20;;;;;;;;;;10196028;28;20500;-60
2022/08/04 17:59:42;;;;;;;4.20;3.13;;;;;;;;;;10192916;28;20092;-60
2022/08/04 18:04:55;;;;;;;4.90;3.60;;;;;;;;;;10190832;28;20077;-59
2022/08/04 18:10:08;;;;;;;;;;;;;;;;;;10191141;28;20073;-60
2022/08/04 18:15:29;;;;;;;4.93;3.78;;;;;;;;;;10191753;28;19953;-60
2022/08/04 18:20:43;;;;;;;3.92;2.22;;;;;;;;;;10188526;28;20487;-59
2022/08/04 18:25:47;;;;;;;5.28;3.35;;;;;;;;;;10157333;28;20110;-59
2022/08/04 18:30:50;;;;;;;5.03;3.80;;;;;;;;;;10168197;28;20077;-60
2022/08/04 18:35:53;;;;;;;7.50;4.35;;;;;;;;;;10169249;28;20535;-59
2022/08/04 18:41:11;;;;;;;6.50;4.10;;;;;;;;;;10165902;28;20077;-60
2022/08/04 18:46:11;;;;;;;4.75;3.28;;;;;;;;;;10173191;28;20423;-59
2022/08/04 18:51:13;;;;;;;6.68;3.88;;;;;;;;;;10164797;28;20066;-60
2022/08/04 18:56:22;;;;;;;7.97;3.70;;;;;;;;;;10166273;28;20077;-59
2022/08/04 19:01:30;;;;;;;3.72;2.70;;;;;;;;;;10181328;28;20077;-58
2022/08/04 19:06:48;;;;;;;3.50;3.20;;;;;;;;;;10177462;28;20077;-58
2022/08/04 19:11:47;;;;;;;2.60;2.40;;;;;;;;;;10180951;28;20061;-59
2022/08/04 19:16:53;;;;;;;5.75;3.40;;;;;;;;;;10171711;28;20062;-60
2022/08/04 19:21:53;;;;;;;2.63;2.08;;;;;;;;;;10191879;28;20085;-59
2022/08/04 19:27:01;;;;;;;12.02;7.10;;;;;;;;;;10199046;28;20061;-59
2022/08/04 19:32:08;;;;;;;3.95;2.40;;;;;;;;;;10193358;28;20097;-60
2022/08/04 19:37:13;;;;;;;3.38;2.28;;;;;;;;;;10190953;28;20045;-60
2022/08/04 19:42:31;;;;;;;7.80;2.75;;;;;;;;;;10165464;28;20082;-60
2022/08/04 19:47:31;;;;;;;3.45;2.17;;;;;;;;;;10166353;28;20039;-59
2022/08/04 19:52:49;;;;;;;4.28;2.95;;;;;;;;;;10172480;28;20069;-59
2022/08/04 19:57:49;;;;;;;3.50;2.85;;;;;;;;;;10169339;28;20072;-60
2022/08/04 20:02:50;;;;;;;3.30;2.50;;;;;;;;;;10166676;28;20117;-60
2022/08/04 20:07:49;;;;;;;6.43;2.83;;;;;;;;;;10155815;28;20081;-60
2022/08/04 20:12:48;;;;;;;3.45;2.33;;;;;;;;;;10167100;28;20042;-60
2022/08/04 20:17:54;;;;;;;3.40;2.58;;;;;;;;;;10164724;28;20784;-58
2022/08/04 20:23:12;;;;;;;5.38;2.70;;;;;;;;;;10186709;28;20077;-59
2022/08/04 20:28:12;;;;;;;4.50;2.47;;;;;;;;;;10185319;28;20436;-60
2022/08/04 20:33:32;;;;;;;2.75;2.33;;;;;;;;;;10169905;28;20088;-60
2022/08/04 20:38:30;;;;;;;4.13;2.67;;;;;;;;;;10174734;28;20064;-60
2022/08/04 20:43:31;;;;;;;3.05;2.50;;;;;;;;;;10175988;28;20473;-60
2022/08/04 20:48:32;;;;;;;4.55;2.80;;;;;;;;;;10172333;28;20476;-60
2022/08/04 20:53:31;;;;;;;5.47;2.80;;;;;;;;;;10167865;28;20070;-61
2022/08/04 20:58:50;;;;;;;4.95;2.70;;;;;;;;;;10167359;28;20057;-59
2022/08/04 21:09:05;;;;;;;2.40;2.20;;;;;;;;;;10185001;28;20042;-60
2022/08/04 21:14:12;;;;;;;3.78;2.35;;;;;;;;;;10173539;28;20073;-59
2022/08/04 21:19:13;;;;;;;3.97;2.80;;;;;;;;;;10175002;28;20543;-58
2022/08/04 21:24:12;;;;;;;3.00;2.10;;;;;;;;;;10185235;28;20057;-60
2022/08/04 21:29:12;;;;;;;6.13;2.90;;;;;;;;;;10179507;28;20062;-60
2022/08/04 21:34:16;;;;;;;8.15;2.58;;;;;;;;;;10173784;28;20077;-60
2022/08/04 21:39:34;;;;;;;9.07;8.05;;;;;;;;;;10173474;28;20042;-60
2022/08/04 21:44:52;;;;;;;3.15;2.13;;;;;;;;;;10171043;28;20061;-60
2022/08/04 21:49:52;;;;;;;5.20;2.70;;;;;;;;;;10173025;28;20068;-60
2022/08/04 21:54:54;;;;;;;3.33;3.03;;;;;;;;;;10178125;28;20074;-60
2022/08/04 21:59:53;;;;;;;3.95;2.60;;;;;;;;;;10174449;28;20344;-61
2022/08/04 22:04:53;;;;;;;4.63;2.67;;;;;;;;;;10172184;28;20533;-58
2022/08/04 22:09:52;;;;;;;3.10;2.65;;;;;;;;;;10179963;28;20490;-59
2022/08/04 22:14:57;;;;;;;4.35;2.13;;;;;;;;;;10173460;28;20078;-60
2022/08/04 22:19:58;;;;;;;3.40;2.33;;;;;;;;;;10158424;28;20528;-59
2022/08/04 22:25:00;;;;;;;4.72;2.60;;;;;;;;;;10154402;28;20061;-60
2022/08/04 22:30:10;;;;;;;9.48;2.67;;;;;;;;;;10154088;28;20046;-60
2022/08/04 22:35:16;;;;;;;6.72;3.08;;;;;;;;;;10162188;28;20062;-60
2022/08/04 22:40:35;;;;;;;5.60;2.63;;;;;;;;;;10154807;28;20090;-60
2022/08/04 22:45:33;;;;;;;3.85;2.25;;;;;;;;;;10162471;28;20061;-58
2022/08/04 22:50:43;;;;;;;13.27;2.40;;;;;;;;;;10174332;28;20030;-59
2022/08/04 22:55:41;;;;;;;3.90;2.30;;;;;;;;;;10164454;28;20090;-59
2022/08/04 23:01:00;;;;;;;5.07;2.33;;;;;;;;;;10164398;28;20078;-59
2022/08/04 23:06:05;;;;;;;4.35;2.58;;;;;;;;;;10168106;28;20085;-60
2022/08/04 23:11:08;;;;;;;2.50;2.22;;;;;;;;;;10148542;28;20066;-59
2022/08/04 23:16:07;;;;;;;5.30;2.75;;;;;;;;;;10126405;28;20070;-59
2022/08/04 23:21:09;;;;;;;2.67;2.22;;;;;;;;;;10123031;28;20086;-60
2022/08/04 23:26:10;;;;;;;5.40;2.40;;;;;;;;;;10126200;28;20378;-59
2022/08/04 23:31:09;;;;;;;4.55;2.50;;;;;;;;;;10134688;28;20134;-59
2022/08/04 23:36:09;;;;;;;2.60;2.40;;;;;;;;;;10132838;28;20073;-60
2022/08/04 23:41:10;;;;;;;6.13;2.35;;;;;;;;;;10137721;28;20070;-60
2022/08/04 23:46:10;;;;;;;5.40;2.50;;;;;;;;;;10159688;28;20077;-59
2022/08/04 23:51:11;;;;;;;2.75;2.20;;;;;;;;;;10179822;28;20066;-59
2022/08/04 23:56:13;;;;;;;5.05;2.72;;;;;;;;;;10176260;28;20049;-61
